Flight Track Log - Related Links

Times and Time Zones

All times are in EDT time to prevent confusion due to time zone crossing. See the CSN6808 flight status page for this flight to view local times or setup timezone preferences in your user account.

Time Position Orientation Groundspeed Altitude Reporting Facility
EDT Latitude Longitude Course Direction KTS MPH feet Rate Location/Type
Wed 09:52:00 AM 39.6235 76.1959 59° Northeast  Level Estimated
Wed 09:53:00 AM 39.7035 76.3715 59° Northeast  Level Estimated
Wed 09:54:00 AM 39.7833 76.5476 59° Northeast  Level Estimated
Wed 09:55:00 AM 39.8628 76.7241 60° Northeast  Level Estimated
Wed 09:56:00 AM 39.9420 76.9010 60° Northeast  Level Estimated
Wed 09:57:00 AM 40.0210 77.0783 60° Northeast  Level Estimated
Wed 09:58:00 AM 40.0997 77.2560 60° Northeast  Level Estimated
Wed 09:59:00 AM 40.1781 77.4342 60° Northeast  Level Estimated
Wed 10:00:00 AM 40.2562 77.6127 60° Northeast  Level Estimated
Wed 10:01:00 AM 40.3341 77.7917 60° Northeast  Level Estimated
Wed 10:02:00 AM 40.4117 77.9710 60° Northeast  Level Estimated
Wed 10:03:00 AM 40.4890 78.1508 60° Northeast  Level Estimated
Wed 10:04:00 AM 40.5660 78.3310 61° Northeast  Level Estimated
Wed 10:05:00 AM 40.6427 78.5116 61° Northeast  Level Estimated
Wed 10:06:00 AM 40.7192 78.6926 61° Northeast  Level Estimated
Wed 10:07:00 AM 40.7954 78.8741 61° Northeast  Level Estimated
Wed 10:08:00 AM 40.8713 79.0559 61° Northeast  Level Estimated
Wed 10:09:00 AM 40.9469 79.2382 61° Northeast  Level Estimated
Wed 10:10:00 AM 41.0222 79.4209 61° Northeast  Level Estimated
Wed 10:11:00 AM 41.0973 79.6040 61° Northeast  Level Estimated
Wed 10:12:00 AM 41.1720 79.7875 62° Northeast  Level Estimated
Wed 10:13:00 AM 41.2465 79.9714 62° Northeast  Level Estimated
Wed 10:14:00 AM 41.3206 80.1558 62° Northeast  Level Estimated
Wed 10:15:00 AM 41.3945 80.3406 62° Northeast  Level Estimated
Wed 10:16:00 AM 41.4681 80.5258 62° Northeast  Level Estimated
Wed 10:17:00 AM 41.5413 80.7114 62° Northeast  Level Estimated
Wed 10:18:00 AM 41.6143 80.8974 62° Northeast  Level Estimated
Wed 10:19:00 AM 41.6870 81.0839 62° Northeast  Level Estimated
Wed 10:20:00 AM 41.7593 81.2708 63° Northeast  Level Estimated
Wed 10:21:00 AM 41.8314 81.4581 63° Northeast  Level Estimated
Wed 10:22:00 AM 41.9032 81.6458 63° Northeast  Level Estimated
Wed 10:23:00 AM 41.9746 81.8339 63° Northeast  Level Estimated
Wed 10:24:00 AM 42.0458 82.0225 63° Northeast  Level Estimated
Wed 10:25:00 AM 42.1166 82.2115 63° Northeast  Level Estimated
Wed 10:26:00 AM 42.1871 82.4009 63° Northeast  Level Estimated
Wed 10:27:00 AM 42.2574 82.5907 63° Northeast  Level Estimated
Wed 10:28:00 AM 42.3273 82.7810 64° Northeast  Level Estimated
Wed 10:29:00 AM 42.3968 82.9717 64° Northeast  Level Estimated
Wed 10:30:00 AM 42.4661 83.1628 64° Northeast  Level Estimated
Wed 10:31:00 AM 42.5351 83.3543 64° Northeast  Level Estimated
Wed 10:32:00 AM 42.6037 83.5462 64° Northeast  Level Estimated
Wed 10:33:00 AM 42.6720 83.7386 64° Northeast  Level Estimated
Wed 10:34:00 AM 42.7400 83.9314 64° Northeast  Level Estimated
Wed 10:35:00 AM 42.8077 84.1246 64° Northeast  Level Estimated
Wed 10:36:00 AM 42.8750 84.3182 65° Northeast  Level Estimated
Wed 10:37:00 AM 42.9420 84.5123 65° Northeast  Level Estimated
Wed 10:38:00 AM 43.0087 84.7068 65° Northeast  Level Estimated
Wed 10:39:00 AM 43.0750 84.9017 65° Northeast  Level Estimated
Wed 10:40:00 AM 43.1410 85.0970 65° Northeast  Level Estimated
Wed 10:41:00 AM 43.2067 85.2927 65° Northeast  Level Estimated
Wed 10:42:00 AM 43.2721 85.4889 65° Northeast  Level Estimated
Wed 10:43:00 AM 43.3371 85.6855 65° Northeast  Level Estimated
Wed 10:44:00 AM 43.4018 85.8825 66° East  Level Estimated
Wed 10:45:00 AM 43.4661 86.0799 66° East  Level Estimated
Wed 10:46:00 AM 43.5301 86.2777 66° East  Level Estimated
Wed 10:47:00 AM 43.5938 86.4760 66° East  Level Estimated
Wed 10:48:00 AM 43.6571 86.6747 66° East  Level Estimated
Wed 10:49:00 AM 43.7201 86.8738 66° East  Level Estimated
Wed 10:50:00 AM 43.7827 87.0733 66° East  Level Estimated
Wed 10:51:00 AM 43.8450 87.2732 67° East  Level Estimated
Wed 10:52:00 AM 43.9069 87.4736 67° East  Level Estimated
Wed 10:53:00 AM 43.9071 87.4742 67° East  Level Estimated
Wed 10:54:00 AM 43.9071 87.4742 144° Southeast  Level Estimated
Wed 10:55:00 AM 43.9071 87.4742 144° Southeast  Level Estimated
Wed 10:56:00 AM 43.9071 87.4742 144° Southeast  Level Estimated
Wed 10:57:00 AM 43.9071 87.4742 144° Southeast  Level Estimated
Wed 10:58:00 AM 43.9071 87.4742 144° Southeast  Level Estimated
Wed 10:59:00 AM 43.9071 87.4742 144° Southeast  Level Estimated
Wed 11:00:00 AM 43.9071 87.4742 144° Southeast  Level Estimated
Wed 11:01:00 AM 43.9071 87.4742 144° Southeast  Level Estimated
Wed 11:02:00 AM 43.9071 87.4742 144° Southeast  Level Estimated
Wed 11:03:00 AM 43.9071 87.4742 144° Southeast  Level Estimated
Wed 11:04:00 AM 43.9071 87.4742 144° Southeast  Level Estimated
Wed 11:05:00 AM 43.9071 87.4742 144° Southeast  Level Estimated
Wed 11:06:00 AM 43.9071 87.4742 144° Southeast  Level Estimated
Wed 11:07:00 AM 43.9071 87.4742 144° Southeast  Level Estimated
Wed 11:08:00 AM 43.9071 87.4742 144° Southeast  Level Estimated

Login

Don't have an account? Register now (free) for customized features, flight alerts, and more!